createdAt,value
2017-10-27T00:01:35.403Z,22.70
2017-10-27T00:04:02.798Z,23.17
2017-10-27T00:06:30.227Z,23.80
2017-10-27T00:08:57.632Z,25.03
2017-10-27T00:11:25.050Z,23.70
2017-10-27T00:13:52.438Z,24.40
2017-10-27T00:16:19.859Z,25.83
2017-10-27T00:18:47.254Z,26.93
2017-10-27T00:21:14.642Z,26.53
2017-10-27T00:23:42.042Z,25.70
2017-10-27T00:26:09.430Z,26.40
2017-10-27T00:28:36.830Z,25.67
2017-10-27T00:31:04.265Z,27.70
2017-10-27T00:33:31.658Z,28.27
2017-10-27T00:35:59.062Z,28.13
2017-10-27T00:38:26.479Z,28.10
2017-10-27T00:40:53.898Z,28.63
2017-10-27T00:43:21.302Z,29.80
2017-10-27T00:45:48.717Z,31.53
2017-10-27T00:48:16.110Z,30.20
2017-10-27T00:50:43.515Z,28.73
2017-10-27T00:53:10.934Z,32.23
2017-10-27T00:55:38.361Z,33.20
2017-10-27T00:58:05.741Z,30.13
2017-10-27T01:00:33.170Z,31.90
2017-10-27T01:03:00.554Z,31.87
2017-10-27T01:05:27.959Z,32.43
2017-10-27T01:07:55.362Z,34.33
2017-10-27T01:10:22.750Z,33.07
2017-10-27T01:12:50.150Z,34.17
2017-10-27T01:15:17.574Z,37.00
2017-10-27T01:17:44.974Z,35.80
2017-10-27T01:20:12.381Z,34.67
2017-10-27T01:22:40.077Z,35.40
2017-10-27T01:25:07.500Z,36.87
2017-10-27T01:27:34.884Z,34.00
2017-10-27T01:30:02.297Z,37.47
2017-10-27T01:32:29.686Z,34.63
2017-10-27T01:34:57.091Z,36.20
2017-10-27T01:37:24.535Z,36.70
2017-10-27T01:39:51.938Z,36.80
2017-10-27T01:42:19.324Z,36.67
2017-10-27T01:44:46.734Z,34.67
2017-10-27T01:47:14.222Z,37.43
2017-10-27T01:49:41.610Z,35.03
2017-10-27T01:52:09.026Z,35.83
2017-10-27T01:54:36.434Z,35.97
2017-10-27T01:57:03.858Z,36.67
2017-10-27T01:59:31.273Z,38.30
2017-10-27T02:01:58.685Z,36.50
2017-10-27T02:04:26.070Z,34.27
2017-10-27T02:06:53.481Z,34.73
2017-10-27T02:09:20.879Z,36.23
2017-10-27T02:11:48.266Z,34.70
2017-10-27T02:14:15.661Z,34.47
2017-10-27T02:16:43.086Z,35.17
2017-10-27T02:19:10.506Z,35.50
2017-10-27T02:21:37.921Z,36.23
2017-10-27T02:24:05.386Z,35.37
2017-10-27T02:26:32.781Z,34.37
2017-10-27T02:29:00.186Z,34.30
2017-10-27T02:31:27.593Z,30.93
2017-10-27T02:33:54.987Z,32.77
2017-10-27T02:36:22.398Z,29.93
2017-10-27T02:38:49.814Z,30.80
2017-10-27T02:41:17.210Z,31.70
2017-10-27T02:43:44.618Z,30.87
2017-10-27T02:46:12.048Z,29.47
2017-10-27T02:48:39.448Z,29.77
2017-10-27T02:51:06.874Z,29.33
2017-10-27T02:53:34.310Z,30.33
2017-10-27T02:56:01.724Z,28.43
2017-10-27T02:58:29.141Z,28.40
2017-10-27T03:00:56.581Z,28.00
2017-10-27T03:03:23.976Z,28.23
2017-10-27T03:05:51.386Z,27.90
2017-10-27T03:08:18.787Z,28.27
2017-10-27T03:10:46.177Z,28.30
2017-10-27T03:13:13.606Z,26.97
2017-10-27T03:15:40.990Z,28.40
2017-10-27T03:18:08.443Z,26.50
2017-10-27T03:20:35.838Z,27.13
2017-10-27T03:23:03.239Z,26.73
2017-10-27T03:25:30.642Z,27.23
2017-10-27T03:27:58.053Z,28.80
2017-10-27T03:30:25.478Z,28.83
2017-10-27T03:32:52.890Z,29.90
2017-10-27T03:35:20.310Z,28.10
2017-10-27T03:37:47.718Z,28.67
2017-10-27T03:40:15.109Z,29.43
2017-10-27T03:42:42.553Z,28.47
2017-10-27T03:45:09.970Z,26.73
2017-10-27T03:47:37.366Z,28.30
2017-10-27T03:50:04.796Z,28.43
2017-10-27T03:52:32.194Z,28.03
2017-10-27T03:54:59.618Z,28.40
2017-10-27T03:57:27.036Z,29.73
2017-10-27T03:59:54.430Z,29.60
2017-10-27T04:02:21.827Z,33.17
2017-10-27T04:04:49.229Z,32.70
2017-10-27T04:07:16.632Z,32.67
2017-10-27T04:09:44.030Z,32.27
2017-10-27T04:12:11.438Z,30.87
2017-10-27T04:14:38.838Z,30.73
2017-10-27T04:17:06.295Z,29.50
2017-10-27T04:19:33.711Z,29.00
2017-10-27T04:22:01.106Z,27.90
2017-10-27T04:24:28.503Z,27.70
2017-10-27T04:26:55.930Z,27.13
2017-10-27T04:29:23.332Z,28.20
2017-10-27T04:31:50.758Z,26.07
2017-10-27T04:34:18.172Z,27.10
2017-10-27T04:36:45.580Z,28.90
2017-10-27T04:39:13.022Z,28.63
2017-10-27T04:41:40.461Z,27.67
2017-10-27T04:44:07.840Z,27.37
2017-10-27T04:46:35.266Z,26.13
2017-10-27T04:49:02.677Z,27.00
2017-10-27T04:51:30.079Z,26.13
2017-10-27T04:53:57.479Z,25.20
2017-10-27T04:56:24.916Z,25.77
2017-10-27T04:58:52.294Z,26.20
2017-10-27T05:01:19.686Z,24.10
2017-10-27T05:03:47.146Z,25.40
2017-10-27T05:06:14.550Z,23.37
2017-10-27T05:08:41.945Z,25.20
2017-10-27T05:11:09.382Z,22.90
2017-10-27T05:13:36.787Z,23.73
2017-10-27T05:16:04.178Z,23.50
2017-10-27T05:18:37.111Z,22.60
2017-10-27T05:21:10.179Z,22.30
2017-10-27T05:23:43.094Z,22.73
2017-10-27T05:26:10.498Z,21.33
2017-10-27T05:28:37.902Z,21.80
2017-10-27T05:31:05.334Z,20.27
2017-10-27T05:33:32.765Z,20.23
2017-10-27T05:36:00.179Z,18.97
2017-10-27T05:38:27.638Z,17.53
2017-10-27T05:40:56.616Z,18.10
2017-10-27T05:43:24.074Z,18.97
2017-10-27T05:45:51.489Z,18.43
2017-10-27T05:48:18.909Z,17.63
2017-10-27T05:50:46.362Z,17.20
2017-10-27T05:53:16.042Z,17.23
2017-10-27T05:55:43.418Z,17.60
2017-10-27T05:58:12.222Z,18.13
2017-10-27T06:00:40.654Z,17.60
2017-10-27T06:03:08.030Z,16.43
2017-10-27T06:05:35.474Z,17.17
2017-10-27T06:08:02.915Z,16.13
2017-10-27T06:10:30.344Z,15.93
2017-10-27T06:12:57.723Z,15.00
2017-10-27T06:15:25.131Z,13.73
2017-10-27T06:17:52.551Z,15.43
2017-10-27T06:20:20.049Z,14.80
2017-10-27T06:22:48.180Z,13.60
2017-10-27T06:25:15.601Z,14.60
2017-10-27T06:27:43.069Z,14.87
2017-10-27T06:30:10.613Z,14.20
2017-10-27T06:32:38.089Z,14.07
2017-10-27T06:35:06.048Z,13.60
2017-10-27T06:37:33.541Z,12.63
2017-10-27T06:40:00.952Z,13.90
2017-10-27T06:42:28.470Z,13.87
2017-10-27T06:44:55.868Z,12.50
2017-10-27T06:47:24.154Z,12.10
2017-10-27T06:49:51.561Z,13.57
2017-10-27T06:52:19.018Z,12.07
2017-10-27T06:54:46.426Z,12.80
2017-10-27T06:57:13.859Z,11.90
2017-10-27T06:59:41.301Z,11.67
2017-10-27T07:02:08.681Z,11.70
2017-10-27T07:04:36.089Z,12.27
2017-10-27T07:07:03.552Z,11.70
2017-10-27T07:09:30.947Z,11.83
2017-10-27T07:11:58.332Z,13.97
2017-10-27T07:14:25.763Z,13.67
2017-10-27T07:16:53.146Z,14.60
2017-10-27T07:19:20.547Z,12.63
2017-10-27T07:21:48.072Z,11.90
2017-10-27T07:24:15.469Z,12.03
2017-10-27T07:26:42.930Z,13.30
2017-10-27T07:29:10.318Z,13.60
2017-10-27T07:31:37.734Z,13.43
2017-10-27T07:34:05.122Z,14.03
2017-10-27T07:36:32.630Z,14.30
2017-10-27T07:39:00.118Z,13.57
2017-10-27T07:41:27.522Z,13.67
2017-10-27T07:43:54.944Z,14.67
2017-10-27T07:46:22.342Z,13.40
2017-10-27T07:48:49.758Z,15.80
2017-10-27T07:51:17.238Z,16.00
2017-10-27T07:53:44.638Z,15.50
2017-10-27T07:56:12.035Z,16.30
2017-10-27T07:58:39.452Z,16.00
2017-10-27T08:01:06.886Z,17.27
2017-10-27T08:03:34.284Z,16.57
2017-10-27T08:06:01.687Z,15.57
2017-10-27T08:08:29.131Z,16.70
2017-10-27T08:10:56.587Z,17.33
2017-10-27T08:13:23.991Z,15.60
2017-10-27T08:15:51.378Z,16.10
2017-10-27T08:18:18.775Z,14.33
2017-10-27T08:20:46.225Z,13.00
2017-10-27T08:23:13.628Z,12.60
2017-10-27T08:25:41.021Z,12.30
2017-10-27T08:28:08.432Z,12.40
2017-10-27T08:30:35.826Z,11.83
2017-10-27T08:33:03.278Z,12.20
2017-10-27T08:35:30.690Z,12.77
2017-10-27T08:37:58.073Z,12.53
2017-10-27T08:40:25.514Z,11.10
2017-10-27T08:42:52.957Z,10.63
2017-10-27T08:45:20.390Z,11.63
2017-10-27T08:47:47.798Z,9.17
2017-10-27T08:50:15.216Z,9.53
2017-10-27T08:52:42.609Z,9.83
2017-10-27T08:55:10.662Z,10.30
2017-10-27T08:57:38.058Z,9.40
2017-10-27T09:00:05.552Z,9.90
2017-10-27T09:02:32.953Z,9.50
2017-10-27T09:05:00.418Z,9.27
2017-10-27T09:07:27.819Z,9.70
2017-10-27T09:09:55.211Z,8.97
2017-10-27T09:12:22.607Z,9.63
2017-10-27T09:14:50.010Z,8.50
2017-10-27T09:17:17.421Z,9.07
2017-10-27T09:19:44.833Z,8.80
2017-10-27T09:22:12.206Z,8.93
2017-10-27T09:24:39.602Z,9.23
2017-10-27T09:27:07.021Z,8.97
2017-10-27T09:29:34.429Z,8.30
2017-10-27T09:32:01.856Z,9.17
2017-10-27T09:34:29.258Z,9.83
2017-10-27T09:36:56.659Z,10.07
2017-10-27T09:39:24.758Z,10.70
2017-10-27T09:41:52.161Z,10.40
2017-10-27T09:44:19.582Z,10.17
2017-10-27T09:46:47.014Z,10.80
2017-10-27T09:49:14.434Z,9.77
2017-10-27T09:51:41.826Z,10.70
2017-10-27T09:54:09.218Z,9.70
2017-10-27T09:56:36.631Z,9.50
2017-10-27T09:59:04.014Z,9.57
2017-10-27T10:01:31.402Z,9.20
2017-10-27T10:03:58.824Z,10.10
2017-10-27T10:06:26.244Z,10.00
2017-10-27T10:08:53.651Z,10.27
2017-10-27T10:11:21.046Z,10.40
2017-10-27T10:13:48.460Z,10.10
2017-10-27T10:16:15.881Z,9.93
2017-10-27T10:18:43.264Z,9.80
2017-10-27T10:21:10.671Z,10.23
2017-10-27T10:23:38.063Z,9.43
2017-10-27T10:26:05.459Z,8.77
2017-10-27T10:28:32.933Z,9.10
2017-10-27T10:31:00.336Z,8.90
2017-10-27T10:33:27.750Z,9.30
2017-10-27T10:35:55.145Z,9.20
2017-10-27T10:38:22.522Z,8.40
2017-10-27T10:40:49.932Z,8.70
2017-10-27T10:43:17.362Z,8.10
2017-10-27T10:45:44.754Z,8.30
2017-10-27T10:48:12.159Z,7.30
2017-10-27T10:50:39.532Z,8.03
2017-10-27T10:53:06.930Z,8.00
2017-10-27T10:55:34.357Z,7.70
2017-10-27T10:58:01.748Z,8.03
2017-10-27T11:00:29.162Z,7.10
2017-10-27T11:02:56.569Z,6.83
2017-10-27T11:05:23.954Z,8.20
2017-10-27T11:07:51.830Z,7.50
2017-10-27T11:10:20.194Z,7.60
2017-10-27T11:12:47.597Z,6.70
2017-10-27T11:15:15.006Z,8.10
2017-10-27T11:17:42.410Z,8.07
2017-10-27T11:20:09.795Z,8.33
2017-10-27T11:22:37.201Z,8.20
2017-10-27T11:25:04.607Z,7.57
2017-10-27T11:27:32.007Z,7.47
2017-10-27T11:29:59.396Z,7.50
2017-10-27T11:32:26.796Z,7.63
2017-10-27T11:34:54.187Z,7.80
2017-10-27T11:37:21.575Z,7.97
2017-10-27T11:39:49.249Z,7.70
2017-10-27T11:42:17.242Z,8.00
2017-10-27T11:44:44.678Z,7.70
2017-10-27T11:47:12.159Z,7.47
2017-10-27T11:49:39.535Z,6.53
2017-10-27T11:52:07.523Z,6.50
2017-10-27T11:54:34.932Z,6.93
2017-10-27T11:57:02.342Z,6.17
2017-10-27T11:59:29.774Z,5.80
2017-10-27T12:01:57.213Z,6.27
2017-10-27T12:04:26.418Z,6.10
2017-10-27T12:06:53.855Z,6.70
2017-10-27T12:09:21.242Z,6.33
2017-10-27T12:11:48.642Z,6.77
2017-10-27T12:14:16.076Z,8.00
2017-10-27T12:16:43.463Z,7.53
2017-10-27T12:19:10.867Z,8.17
2017-10-27T12:21:44.237Z,8.00
2017-10-27T12:24:12.442Z,7.30
2017-10-27T12:26:39.834Z,8.20
2017-10-27T12:29:07.245Z,8.70
2017-10-27T12:31:34.887Z,7.77
2017-10-27T12:34:02.254Z,8.30
2017-10-27T12:36:29.720Z,7.60
2017-10-27T12:38:57.155Z,7.30
2017-10-27T12:41:25.599Z,6.93
2017-10-27T12:43:53.101Z,7.50
2017-10-27T12:46:22.275Z,8.00
2017-10-27T12:48:50.233Z,7.80
2017-10-27T12:51:18.526Z,7.33
2017-10-27T12:53:45.909Z,7.00
2017-10-27T12:56:13.295Z,7.30
2017-10-27T12:58:40.714Z,6.80
2017-10-27T13:01:08.106Z,6.90
2017-10-27T13:03:35.487Z,7.43
2017-10-27T13:06:02.899Z,7.20
2017-10-27T13:08:30.285Z,7.83
2017-10-27T13:10:57.670Z,6.67
2017-10-27T13:13:25.178Z,6.80
2017-10-27T13:15:52.567Z,7.70
2017-10-27T13:18:19.967Z,7.80
2017-10-27T13:20:47.362Z,7.47
2017-10-27T13:23:14.746Z,7.40
2017-10-27T13:25:42.130Z,7.53
2017-10-27T13:28:20.439Z,7.07
2017-10-27T13:30:47.825Z,8.27
2017-10-27T13:33:15.211Z,7.40
2017-10-27T13:35:42.624Z,7.57
2017-10-27T13:38:10.010Z,7.90
2017-10-27T13:40:37.398Z,7.50
2017-10-27T13:43:04.806Z,8.00
2017-10-27T13:45:32.194Z,7.70
2017-10-27T13:47:59.861Z,7.17
2017-10-27T13:50:27.279Z,7.00
2017-10-27T13:52:54.723Z,7.20
2017-10-27T13:55:22.118Z,7.30
2017-10-27T13:57:49.567Z,7.23
2017-10-27T14:00:17.958Z,7.07
2017-10-27T14:02:45.409Z,6.90
2017-10-27T14:05:13.734Z,7.43
2017-10-27T14:07:41.126Z,6.60
2017-10-27T14:10:08.534Z,7.20
2017-10-27T14:12:37.236Z,6.93
2017-10-27T14:15:04.611Z,6.53
2017-10-27T14:17:32.708Z,6.10
2017-10-27T14:20:00.119Z,6.70
2017-10-27T14:22:27.502Z,7.00
2017-10-27T14:24:54.882Z,7.30
2017-10-27T14:27:22.398Z,7.47
2017-10-27T14:29:49.770Z,6.40
2017-10-27T14:32:17.183Z,6.37
2017-10-27T14:34:44.610Z,6.47
2017-10-27T14:37:11.982Z,6.70
2017-10-27T14:39:39.366Z,6.10
2017-10-27T14:42:06.875Z,7.00
2017-10-27T14:44:34.254Z,6.63
2017-10-27T14:47:01.648Z,6.27
2017-10-27T14:49:29.046Z,7.87
2017-10-27T14:51:56.437Z,6.83
2017-10-27T14:54:23.813Z,6.70
2017-10-27T14:56:51.233Z,6.33
2017-10-27T14:59:18.630Z,6.80
2017-10-27T15:01:46.010Z,7.10
2017-10-27T15:04:13.508Z,6.87
2017-10-27T15:06:40.942Z,6.53
2017-10-27T15:09:08.333Z,7.20
2017-10-27T15:11:35.802Z,8.07
2017-10-27T15:14:03.192Z,8.40
2017-10-27T15:16:30.574Z,8.10
2017-10-27T15:18:57.983Z,7.50
2017-10-27T15:21:25.377Z,7.50
2017-10-27T15:23:52.766Z,6.67
2017-10-27T15:26:20.181Z,6.60
2017-10-27T15:28:47.561Z,6.50
2017-10-27T15:31:14.946Z,7.10
2017-10-27T15:33:42.365Z,6.57
2017-10-27T15:36:09.750Z,7.00
2017-10-27T15:38:37.133Z,6.73
2017-10-27T15:41:04.531Z,6.80
2017-10-27T15:43:31.926Z,8.00
2017-10-27T15:46:00.110Z,7.00
2017-10-27T15:48:27.553Z,7.77
2017-10-27T15:50:54.947Z,7.90
2017-10-27T15:53:22.347Z,6.87
2017-10-27T15:55:49.736Z,7.23
2017-10-27T15:58:17.210Z,7.10
2017-10-27T16:00:44.615Z,7.77
2017-10-27T16:03:12.126Z,7.07
2017-10-27T16:05:39.514Z,7.20
2017-10-27T16:08:06.914Z,7.60
2017-10-27T16:10:34.429Z,6.70
2017-10-27T16:13:01.815Z,8.00
2017-10-27T16:15:29.218Z,8.10
2017-10-27T16:17:56.758Z,8.00
2017-10-27T16:20:24.160Z,7.30
2017-10-27T16:22:51.543Z,6.70
2017-10-27T16:25:18.951Z,7.70
2017-10-27T16:27:46.357Z,8.00
2017-10-27T16:30:13.764Z,6.80
2017-10-27T16:32:41.185Z,7.07
2017-10-27T16:35:08.585Z,7.33
2017-10-27T16:37:36.019Z,8.20
2017-10-27T16:40:03.570Z,8.23
2017-10-27T16:42:30.967Z,9.13
2017-10-27T16:44:58.400Z,8.20
2017-10-27T16:47:25.831Z,9.20
2017-10-27T16:49:53.279Z,8.47
2017-10-27T16:52:20.688Z,7.70
2017-10-27T16:54:49.150Z,7.27
2017-10-27T16:57:16.982Z,8.17
2017-10-27T16:59:44.370Z,8.57
2017-10-27T17:02:12.598Z,7.87
2017-10-27T17:04:39.980Z,8.73
2017-10-27T17:07:08.603Z,10.00
2017-10-27T17:09:36.226Z,9.70
2017-10-27T17:12:03.599Z,8.57
2017-10-27T17:14:30.990Z,9.13
2017-10-27T17:16:58.526Z,9.73
2017-10-27T17:19:25.931Z,9.70
2017-10-27T17:21:53.330Z,9.50
2017-10-27T17:24:20.861Z,9.50
2017-10-27T17:26:48.242Z,9.23
2017-10-27T17:29:15.635Z,8.90
2017-10-27T17:31:43.156Z,9.93
2017-10-27T17:34:10.574Z,10.40
2017-10-27T17:36:37.966Z,11.70
2017-10-27T17:39:05.369Z,10.60
2017-10-27T17:41:32.795Z,12.00
2017-10-27T17:44:00.173Z,10.40
2017-10-27T17:46:27.679Z,9.90
2017-10-27T17:48:55.091Z,9.20
2017-10-27T17:51:22.486Z,9.70
2017-10-27T17:53:50.914Z,8.87
2017-10-27T17:56:18.313Z,9.30
2017-10-27T17:58:45.702Z,9.70
2017-10-27T18:01:13.887Z,9.27
2017-10-27T18:03:41.294Z,9.00
2017-10-27T18:06:08.696Z,9.50
2017-10-27T18:08:36.739Z,10.00
2017-10-27T18:11:04.202Z,9.53
2017-10-27T18:13:31.594Z,8.00
2017-10-27T18:15:59.805Z,8.23
2017-10-27T18:18:27.198Z,9.40
2017-10-27T18:20:54.602Z,9.50
2017-10-27T18:23:22.070Z,9.60
2017-10-27T18:25:49.502Z,9.50
2017-10-27T18:28:16.894Z,8.80
2017-10-27T18:30:44.314Z,9.30
2017-10-27T18:33:11.702Z,9.33
2017-10-27T18:35:39.115Z,9.80
2017-10-27T18:38:06.722Z,10.43
2017-10-27T18:40:34.115Z,9.87
2017-10-27T18:43:01.525Z,9.73
2017-10-27T18:45:29.033Z,8.93
2017-10-27T18:47:56.430Z,9.60
2017-10-27T18:50:23.904Z,9.70
2017-10-27T18:52:51.334Z,10.40
2017-10-27T18:55:18.721Z,9.63
2017-10-27T18:57:49.815Z,8.50
2017-10-27T19:00:17.314Z,11.10
2017-10-27T19:02:44.699Z,9.80
2017-10-27T19:05:12.114Z,9.20
2017-10-27T19:07:39.627Z,9.30
2017-10-27T19:10:07.021Z,10.73
2017-10-27T19:12:34.420Z,11.57
2017-10-27T19:15:01.924Z,11.67
2017-10-27T19:17:29.317Z,11.80
2017-10-27T19:19:56.709Z,12.30
2017-10-27T19:22:24.127Z,12.90
2017-10-27T19:24:51.515Z,12.60
2017-10-27T19:27:18.926Z,13.33
2017-10-27T19:29:46.426Z,13.80
2017-10-27T19:32:13.828Z,13.90
2017-10-27T19:34:41.221Z,13.67
2017-10-27T19:37:08.645Z,12.17
2017-10-27T19:39:36.452Z,12.47
2017-10-27T19:42:03.829Z,13.13
2017-10-27T19:44:31.234Z,12.00
2017-10-27T19:46:58.627Z,11.03
2017-10-27T19:49:26.018Z,11.50
2017-10-27T19:51:53.530Z,10.63
2017-10-27T19:54:20.978Z,10.67
2017-10-27T19:56:48.369Z,10.43
2017-10-27T19:59:15.787Z,10.90
2017-10-27T20:01:43.195Z,10.10
2017-10-27T20:04:10.593Z,9.90
2017-10-27T20:06:38.087Z,10.30
2017-10-27T20:09:05.486Z,11.17
2017-10-27T20:11:32.873Z,11.00
2017-10-27T20:14:00.283Z,10.53
2017-10-27T20:16:27.694Z,9.87
2017-10-27T20:18:55.083Z,9.17
2017-10-27T20:21:22.483Z,10.10
2017-10-27T20:23:49.882Z,10.00
2017-10-27T20:26:17.274Z,10.60
2017-10-27T20:28:44.692Z,9.30
2017-10-27T20:31:12.078Z,9.43
2017-10-27T20:33:39.465Z,10.40
2017-10-27T20:36:06.880Z,9.47
2017-10-27T20:38:34.257Z,9.93
2017-10-27T20:41:01.653Z,9.73
2017-10-27T20:43:29.054Z,9.63
2017-10-27T20:45:56.437Z,9.17
2017-10-27T20:48:23.822Z,9.00
2017-10-27T20:50:51.326Z,8.77
2017-10-27T20:53:18.723Z,10.03
2017-10-27T20:55:46.686Z,10.13
2017-10-27T20:58:14.107Z,9.50
2017-10-27T21:00:41.509Z,9.80
2017-10-27T21:03:08.893Z,9.70
2017-10-27T21:05:36.305Z,10.20
2017-10-27T21:08:03.697Z,9.73
2017-10-27T21:10:31.094Z,10.40
2017-10-27T21:12:58.522Z,9.90
2017-10-27T21:15:25.969Z,9.40
2017-10-27T21:17:54.162Z,9.50
2017-10-27T21:20:21.570Z,9.47
2017-10-27T21:22:48.954Z,9.03
2017-10-27T21:25:16.350Z,8.90
2017-10-27T21:27:43.770Z,9.90
2017-10-27T21:30:11.170Z,9.40
2017-10-27T21:32:38.555Z,9.70
2017-10-27T21:35:06.052Z,9.63
2017-10-27T21:37:33.437Z,10.97
2017-10-27T21:40:00.835Z,10.40
2017-10-27T21:42:28.342Z,10.30
2017-10-27T21:44:55.733Z,10.50
2017-10-27T21:47:23.134Z,10.63
2017-10-27T21:49:50.536Z,10.80
2017-10-27T21:52:17.930Z,10.90
2017-10-27T21:54:45.333Z,10.60
2017-10-27T21:57:12.753Z,11.00
2017-10-27T21:59:40.146Z,10.30
2017-10-27T22:02:07.539Z,9.73
2017-10-27T22:04:34.953Z,9.77
2017-10-27T22:07:02.348Z,10.57
2017-10-27T22:09:29.742Z,10.50
2017-10-27T22:11:57.151Z,10.90
2017-10-27T22:14:24.546Z,10.37
2017-10-27T22:16:51.957Z,10.90
2017-10-27T22:19:19.390Z,10.00
2017-10-27T22:21:46.790Z,10.13
2017-10-27T22:24:14.193Z,11.00
2017-10-27T22:26:41.709Z,10.43
2017-10-27T22:29:09.127Z,11.30
2017-10-27T22:31:36.519Z,10.57
2017-10-27T22:34:03.927Z,10.10
2017-10-27T22:36:31.330Z,10.67
2017-10-27T22:38:58.722Z,10.07
2017-10-27T22:41:26.174Z,10.90
2017-10-27T22:43:53.599Z,10.83
2017-10-27T22:46:20.987Z,10.60
2017-10-27T22:48:48.404Z,10.77
2017-10-27T22:51:15.805Z,10.60
2017-10-27T22:53:43.197Z,11.40
2017-10-27T22:56:10.703Z,10.80
2017-10-27T22:58:38.087Z,9.83
2017-10-27T23:01:05.482Z,9.70
2017-10-27T23:03:32.903Z,10.33
2017-10-27T23:06:00.298Z,10.13
2017-10-27T23:08:27.706Z,10.07
2017-10-27T23:10:55.202Z,9.43
2017-10-27T23:13:22.594Z,10.57
2017-10-27T23:15:49.986Z,9.83
2017-10-27T23:18:17.469Z,9.67
2017-10-27T23:20:44.860Z,10.50
2017-10-27T23:23:12.250Z,10.00
2017-10-27T23:25:39.655Z,10.07
2017-10-27T23:28:07.049Z,9.93
2017-10-27T23:30:34.456Z,9.33
2017-10-27T23:33:01.977Z,9.77
2017-10-27T23:35:29.373Z,9.90
2017-10-27T23:37:56.764Z,9.83
2017-10-27T23:40:24.289Z,10.00
2017-10-27T23:42:51.678Z,10.37
2017-10-27T23:45:19.078Z,10.10
2017-10-27T23:47:46.502Z,9.70
2017-10-27T23:50:13.890Z,10.63
2017-10-27T23:52:41.293Z,11.23
2017-10-27T23:55:08.722Z,10.57
2017-10-27T23:57:36.114Z,10.47
